Terminal Aerodrome Forecast
Issued by NWS Atlanta, GA

Home | Current Version | Previous Version | Text Only | Print | Product List | Glossary On
Versions: 1 2 3 4 5 6 7 8 9 10 11 12 13 14 15
367
FTUS42 KFFC 090523
TAFMCN
TAF
KMCN 090523Z 0906/1006 31008KT P6SM SCT050 BKN100
     FM091100 29010G18KT P6SM SCT040 BKN070
     FM091800 29014G24KT P6SM BKN040
     FM100000 28009KT P6SM SCT060=

USA.gov is the U.S. government's official web portal to all federal, state and local government web resources and services.